sensor_id;sensor_type;location;lat;lon;timestamp;P1;durP1;ratioP1;P2;durP2;ratioP2
75340;SDS011;64091;47.562;18.920;2022-10-31T00:00:53;10.80;;;7.90;;
75340;SDS011;64091;47.562;18.920;2022-10-31T00:03:19;10.40;;;8.20;;
75340;SDS011;64091;47.562;18.920;2022-10-31T00:05:45;9.50;;;7.60;;
75340;SDS011;64091;47.562;18.920;2022-10-31T00:08:12;10.30;;;8.00;;
75340;SDS011;64091;47.562;18.920;2022-10-31T00:10:38;11.60;;;8.50;;
75340;SDS011;64091;47.562;18.920;2022-10-31T00:13:04;9.10;;;7.20;;
75340;SDS011;64091;47.562;18.920;2022-10-31T00:15:30;9.70;;;7.00;;
75340;SDS011;64091;47.562;18.920;2022-10-31T00:17:55;9.10;;;6.90;;
75340;SDS011;64091;47.562;18.920;2022-10-31T00:20:20;9.70;;;7.40;;
75340;SDS011;64091;47.562;18.920;2022-10-31T00:22:46;9.90;;;7.10;;
75340;SDS011;64091;47.562;18.920;2022-10-31T00:25:11;9.90;;;7.50;;
75340;SDS011;64091;47.562;18.920;2022-10-31T00:27:39;10.80;;;7.20;;
75340;SDS011;64091;47.562;18.920;2022-10-31T00:30:07;10.00;;;7.00;;
75340;SDS011;64091;47.562;18.920;2022-10-31T00:32:33;9.80;;;6.80;;
75340;SDS011;64091;47.562;18.920;2022-10-31T00:34:58;10.50;;;7.50;;
75340;SDS011;64091;47.562;18.920;2022-10-31T00:37:24;10.00;;;7.10;;
75340;SDS011;64091;47.562;18.920;2022-10-31T00:39:51;8.90;;;6.80;;
75340;SDS011;64091;47.562;18.920;2022-10-31T00:42:17;9.40;;;7.10;;
75340;SDS011;64091;47.562;18.920;2022-10-31T00:44:42;11.10;;;7.10;;
75340;SDS011;64091;47.562;18.920;2022-10-31T00:47:10;10.30;;;7.80;;
75340;SDS011;64091;47.562;18.920;2022-10-31T00:49:35;9.10;;;6.70;;
75340;SDS011;64091;47.562;18.920;2022-10-31T00:52:00;9.70;;;7.10;;
75340;SDS011;64091;47.562;18.920;2022-10-31T00:54:26;9.80;;;7.40;;
75340;SDS011;64091;47.562;18.920;2022-10-31T00:56:51;9.90;;;6.90;;
75340;SDS011;64091;47.562;18.920;2022-10-31T00:59:17;9.80;;;7.40;;
75340;SDS011;64091;47.562;18.920;2022-10-31T01:01:42;10.10;;;7.70;;
75340;SDS011;64091;47.562;18.920;2022-10-31T01:04:07;9.50;;;7.00;;
75340;SDS011;64091;47.562;18.920;2022-10-31T01:06:33;11.00;;;7.60;;
75340;SDS011;64091;47.562;18.920;2022-10-31T01:08:58;10.60;;;8.10;;
75340;SDS011;64091;47.562;18.920;2022-10-31T01:11:24;9.80;;;7.60;;
75340;SDS011;64091;47.562;18.920;2022-10-31T01:13:50;10.50;;;8.00;;
75340;SDS011;64091;47.562;18.920;2022-10-31T01:16:17;10.60;;;7.90;;
75340;SDS011;64091;47.562;18.920;2022-10-31T01:18:44;10.00;;;7.30;;
75340;SDS011;64091;47.562;18.920;2022-10-31T01:21:11;10.10;;;7.30;;
75340;SDS011;64091;47.562;18.920;2022-10-31T01:26:08;10.30;;;7.50;;
75340;SDS011;64091;47.562;18.920;2022-10-31T01:28:38;10.40;;;7.20;;
75340;SDS011;64091;47.562;18.920;2022-10-31T01:31:05;11.50;;;8.60;;
75340;SDS011;64091;47.562;18.920;2022-10-31T01:35:58;11.70;;;7.90;;
75340;SDS011;64091;47.562;18.920;2022-10-31T01:38:24;12.90;;;9.40;;
75340;SDS011;64091;47.562;18.920;2022-10-31T01:40:49;12.70;;;9.20;;
75340;SDS011;64091;47.562;18.920;2022-10-31T01:43:18;10.90;;;8.50;;
75340;SDS011;64091;47.562;18.920;2022-10-31T01:45:44;11.50;;;8.70;;
75340;SDS011;64091;47.562;18.920;2022-10-31T01:48:15;10.20;;;8.10;;
75340;SDS011;64091;47.562;18.920;2022-10-31T01:50:42;12.20;;;9.60;;
75340;SDS011;64091;47.562;18.920;2022-10-31T01:53:08;12.00;;;9.70;;
75340;SDS011;64091;47.562;18.920;2022-10-31T01:55:35;10.60;;;8.10;;
75340;SDS011;64091;47.562;18.920;2022-10-31T01:58:09;9.80;;;7.70;;
75340;SDS011;64091;47.562;18.920;2022-10-31T02:03:10;10.40;;;7.60;;
75340;SDS011;64091;47.562;18.920;2022-10-31T02:05:36;9.20;;;7.10;;
75340;SDS011;64091;47.562;18.920;2022-10-31T02:08:03;10.40;;;7.70;;
75340;SDS011;64091;47.562;18.920;2022-10-31T02:10:35;10.80;;;7.30;;
75340;SDS011;64091;47.562;18.920;2022-10-31T02:13:02;11.50;;;8.40;;
75340;SDS011;64091;47.562;18.920;2022-10-31T02:15:32;11.40;;;8.50;;
75340;SDS011;64091;47.562;18.920;2022-10-31T02:18:01;10.80;;;7.80;;
75340;SDS011;64091;47.562;18.920;2022-10-31T02:20:32;9.90;;;7.60;;
75340;SDS011;64091;47.562;18.920;2022-10-31T02:24:12;9.90;;;7.70;;
75340;SDS011;64091;47.562;18.920;2022-10-31T02:29:38;10.00;;;7.20;;
75340;SDS011;64091;47.562;18.920;2022-10-31T02:33:14;12.10;;;7.90;;
75340;SDS011;64091;47.562;18.920;2022-10-31T02:44:31;9.20;;;6.80;;
75340;SDS011;64091;47.562;18.920;2022-10-31T02:47:14;11.30;;;7.90;;
75340;SDS011;64091;47.562;18.920;2022-10-31T02:52:20;9.40;;;7.30;;
75340;SDS011;64091;47.562;18.920;2022-10-31T02:54:46;10.10;;;7.10;;
75340;SDS011;64091;47.562;18.920;2022-10-31T02:57:13;9.30;;;7.20;;
75340;SDS011;64091;47.562;18.920;2022-10-31T02:59:49;9.50;;;6.70;;
75340;SDS011;64091;47.562;18.920;2022-10-31T03:02:21;9.10;;;7.00;;
75340;SDS011;64091;47.562;18.920;2022-10-31T03:15:51;9.80;;;7.50;;
75340;SDS011;64091;47.562;18.920;2022-10-31T03:20:54;14.00;;;7.40;;
75340;SDS011;64091;47.562;18.920;2022-10-31T03:23:28;10.20;;;8.10;;
75340;SDS011;64091;47.562;18.920;2022-10-31T03:25:55;9.70;;;7.40;;
75340;SDS011;64091;47.562;18.920;2022-10-31T03:30:50;9.10;;;6.50;;
75340;SDS011;64091;47.562;18.920;2022-10-31T03:33:17;9.20;;;6.40;;
75340;SDS011;64091;47.562;18.920;2022-10-31T03:35:48;10.40;;;8.00;;
75340;SDS011;64091;47.562;18.920;2022-10-31T03:38:16;9.00;;;6.90;;
75340;SDS011;64091;47.562;18.920;2022-10-31T03:40:45;10.20;;;7.80;;
75340;SDS011;64091;47.562;18.920;2022-10-31T03:43:13;9.40;;;6.80;;
75340;SDS011;64091;47.562;18.920;2022-10-31T03:45:44;10.70;;;8.10;;
75340;SDS011;64091;47.562;18.920;2022-10-31T03:48:11;10.20;;;8.10;;
75340;SDS011;64091;47.562;18.920;2022-10-31T03:50:50;9.30;;;7.30;;
75340;SDS011;64091;47.562;18.920;2022-10-31T03:56:36;11.50;;;8.30;;
75340;SDS011;64091;47.562;18.920;2022-10-31T03:59:07;9.90;;;7.10;;
75340;SDS011;64091;47.562;18.920;2022-10-31T04:01:38;12.60;;;7.50;;
75340;SDS011;64091;47.562;18.920;2022-10-31T04:04:06;9.00;;;7.10;;
75340;SDS011;64091;47.562;18.920;2022-10-31T04:06:32;9.10;;;7.00;;
75340;SDS011;64091;47.562;18.920;2022-10-31T04:09:00;8.90;;;7.00;;
75340;SDS011;64091;47.562;18.920;2022-10-31T04:11:28;10.40;;;7.80;;
75340;SDS011;64091;47.562;18.920;2022-10-31T04:13:56;8.70;;;6.90;;
75340;SDS011;64091;47.562;18.920;2022-10-31T04:16:22;10.20;;;7.80;;
75340;SDS011;64091;47.562;18.920;2022-10-31T04:18:49;10.10;;;6.60;;
75340;SDS011;64091;47.562;18.920;2022-10-31T04:21:14;10.30;;;7.30;;
75340;SDS011;64091;47.562;18.920;2022-10-31T04:23:42;10.10;;;8.10;;
75340;SDS011;64091;47.562;18.920;2022-10-31T04:26:09;8.90;;;6.80;;
75340;SDS011;64091;47.562;18.920;2022-10-31T04:28:36;8.90;;;7.00;;
75340;SDS011;64091;47.562;18.920;2022-10-31T04:31:01;9.80;;;7.50;;
75340;SDS011;64091;47.562;18.920;2022-10-31T04:33:27;9.50;;;5.90;;
75340;SDS011;64091;47.562;18.920;2022-10-31T04:35:52;8.50;;;6.60;;
75340;SDS011;64091;47.562;18.920;2022-10-31T04:38:18;10.20;;;8.00;;
75340;SDS011;64091;47.562;18.920;2022-10-31T04:40:44;9.90;;;8.10;;
75340;SDS011;64091;47.562;18.920;2022-10-31T04:43:10;8.30;;;6.60;;
75340;SDS011;64091;47.562;18.920;2022-10-31T04:45:35;9.50;;;7.80;;
75340;SDS011;64091;47.562;18.920;2022-10-31T04:48:01;9.40;;;7.70;;
75340;SDS011;64091;47.562;18.920;2022-10-31T04:50:27;9.00;;;6.90;;
75340;SDS011;64091;47.562;18.920;2022-10-31T04:52:52;9.10;;;6.80;;
75340;SDS011;64091;47.562;18.920;2022-10-31T04:55:18;9.80;;;7.40;;
75340;SDS011;64091;47.562;18.920;2022-10-31T04:57:47;9.80;;;7.40;;
75340;SDS011;64091;47.562;18.920;2022-10-31T05:00:14;10.10;;;7.50;;
75340;SDS011;64091;47.562;18.920;2022-10-31T05:02:44;9.40;;;7.00;;
75340;SDS011;64091;47.562;18.920;2022-10-31T05:05:13;9.40;;;7.20;;
75340;SDS011;64091;47.562;18.920;2022-10-31T05:07:43;10.40;;;7.90;;
75340;SDS011;64091;47.562;18.920;2022-10-31T05:10:11;10.70;;;7.90;;
75340;SDS011;64091;47.562;18.920;2022-10-31T05:12:45;10.50;;;7.80;;
75340;SDS011;64091;47.562;18.920;2022-10-31T05:15:14;11.40;;;8.40;;
75340;SDS011;64091;47.562;18.920;2022-10-31T05:17:40;11.90;;;9.10;;
75340;SDS011;64091;47.562;18.920;2022-10-31T05:20:06;11.60;;;8.30;;
75340;SDS011;64091;47.562;18.920;2022-10-31T05:22:32;11.90;;;7.20;;
75340;SDS011;64091;47.562;18.920;2022-10-31T05:24:57;9.70;;;7.50;;
75340;SDS011;64091;47.562;18.920;2022-10-31T05:27:22;11.50;;;8.60;;
75340;SDS011;64091;47.562;18.920;2022-10-31T05:29:50;10.00;;;7.90;;
75340;SDS011;64091;47.562;18.920;2022-10-31T05:32:15;9.80;;;7.60;;
75340;SDS011;64091;47.562;18.920;2022-10-31T05:34:43;11.70;;;8.50;;
75340;SDS011;64091;47.562;18.920;2022-10-31T05:37:09;10.30;;;8.10;;
75340;SDS011;64091;47.562;18.920;2022-10-31T05:39:36;24.50;;;7.50;;
75340;SDS011;64091;47.562;18.920;2022-10-31T05:42:02;11.50;;;8.70;;
75340;SDS011;64091;47.562;18.920;2022-10-31T05:44:27;15.50;;;9.60;;
75340;SDS011;64091;47.562;18.920;2022-10-31T05:46:53;13.50;;;10.30;;
75340;SDS011;64091;47.562;18.920;2022-10-31T05:49:18;21.10;;;11.20;;
75340;SDS011;64091;47.562;18.920;2022-10-31T05:51:44;12.00;;;8.60;;
75340;SDS011;64091;47.562;18.920;2022-10-31T05:54:09;12.40;;;9.00;;
75340;SDS011;64091;47.562;18.920;2022-10-31T05:56:34;12.80;;;9.50;;
75340;SDS011;64091;47.562;18.920;2022-10-31T05:59:00;14.10;;;10.70;;
75340;SDS011;64091;47.562;18.920;2022-10-31T06:01:28;12.90;;;9.40;;
75340;SDS011;64091;47.562;18.920;2022-10-31T06:03:53;15.10;;;10.30;;
75340;SDS011;64091;47.562;18.920;2022-10-31T06:06:19;12.00;;;9.00;;
75340;SDS011;64091;47.562;18.920;2022-10-31T06:08:44;12.50;;;9.40;;
75340;SDS011;64091;47.562;18.920;2022-10-31T06:11:10;12.60;;;9.20;;
75340;SDS011;64091;47.562;18.920;2022-10-31T06:13:37;14.60;;;10.20;;
75340;SDS011;64091;47.562;18.920;2022-10-31T06:16:03;13.50;;;10.00;;
75340;SDS011;64091;47.562;18.920;2022-10-31T06:18:28;12.40;;;9.00;;
75340;SDS011;64091;47.562;18.920;2022-10-31T06:20:54;18.80;;;10.90;;
75340;SDS011;64091;47.562;18.920;2022-10-31T06:23:19;12.50;;;9.00;;
75340;SDS011;64091;47.562;18.920;2022-10-31T06:25:49;14.40;;;10.70;;
75340;SDS011;64091;47.562;18.920;2022-10-31T06:28:14;12.00;;;8.80;;
75340;SDS011;64091;47.562;18.920;2022-10-31T06:30:40;14.80;;;9.60;;
75340;SDS011;64091;47.562;18.920;2022-10-31T06:33:05;13.00;;;8.60;;
75340;SDS011;64091;47.562;18.920;2022-10-31T06:35:31;12.00;;;8.60;;
75340;SDS011;64091;47.562;18.920;2022-10-31T06:37:57;13.00;;;9.20;;
75340;SDS011;64091;47.562;18.920;2022-10-31T06:40:22;13.70;;;8.90;;
75340;SDS011;64091;47.562;18.920;2022-10-31T06:43:08;14.70;;;9.90;;
75340;SDS011;64091;47.562;18.920;2022-10-31T06:45:36;12.30;;;8.30;;
75340;SDS011;64091;47.562;18.920;2022-10-31T06:48:02;13.30;;;9.50;;
75340;SDS011;64091;47.562;18.920;2022-10-31T06:50:27;14.50;;;10.00;;
75340;SDS011;64091;47.562;18.920;2022-10-31T06:52:54;16.40;;;10.60;;
75340;SDS011;64091;47.562;18.920;2022-10-31T06:55:20;15.40;;;10.60;;
75340;SDS011;64091;47.562;18.920;2022-10-31T06:57:57;15.90;;;10.00;;
75340;SDS011;64091;47.562;18.920;2022-10-31T07:00:24;18.00;;;10.20;;
75340;SDS011;64091;47.562;18.920;2022-10-31T07:02:54;14.10;;;9.60;;
75340;SDS011;64091;47.562;18.920;2022-10-31T07:05:20;15.60;;;10.40;;
75340;SDS011;64091;47.562;18.920;2022-10-31T07:07:46;14.60;;;9.80;;
75340;SDS011;64091;47.562;18.920;2022-10-31T07:10:11;31.70;;;11.10;;
75340;SDS011;64091;47.562;18.920;2022-10-31T07:12:37;14.70;;;9.00;;
75340;SDS011;64091;47.562;18.920;2022-10-31T07:15:03;15.80;;;10.70;;
75340;SDS011;64091;47.562;18.920;2022-10-31T07:17:29;15.30;;;10.00;;
75340;SDS011;64091;47.562;18.920;2022-10-31T07:19:54;14.60;;;9.60;;
75340;SDS011;64091;47.562;18.920;2022-10-31T07:22:20;16.90;;;11.20;;
75340;SDS011;64091;47.562;18.920;2022-10-31T07:24:45;14.60;;;9.40;;
75340;SDS011;64091;47.562;18.920;2022-10-31T07:27:10;16.30;;;9.80;;
75340;SDS011;64091;47.562;18.920;2022-10-31T07:29:36;15.50;;;9.70;;
75340;SDS011;64091;47.562;18.920;2022-10-31T07:32:01;16.60;;;10.90;;
75340;SDS011;64091;47.562;18.920;2022-10-31T07:34:29;19.10;;;12.20;;
75340;SDS011;64091;47.562;18.920;2022-10-31T07:36:55;16.90;;;11.20;;
75340;SDS011;64091;47.562;18.920;2022-10-31T07:39:20;22.30;;;12.20;;
75340;SDS011;64091;47.562;18.920;2022-10-31T07:41:45;15.60;;;10.80;;
75340;SDS011;64091;47.562;18.920;2022-10-31T07:44:11;15.90;;;10.50;;
75340;SDS011;64091;47.562;18.920;2022-10-31T07:46:36;14.30;;;9.00;;
75340;SDS011;64091;47.562;18.920;2022-10-31T07:49:02;16.80;;;9.50;;
75340;SDS011;64091;47.562;18.920;2022-10-31T07:51:27;12.90;;;8.60;;
75340;SDS011;64091;47.562;18.920;2022-10-31T07:53:53;12.10;;;8.30;;
75340;SDS011;64091;47.562;18.920;2022-10-31T07:56:20;16.90;;;9.40;;
75340;SDS011;64091;47.562;18.920;2022-10-31T07:58:46;15.10;;;10.20;;
75340;SDS011;64091;47.562;18.920;2022-10-31T08:01:11;18.40;;;12.70;;
75340;SDS011;64091;47.562;18.920;2022-10-31T08:03:37;15.90;;;10.20;;
75340;SDS011;64091;47.562;18.920;2022-10-31T08:06:02;21.20;;;15.80;;
75340;SDS011;64091;47.562;18.920;2022-10-31T08:08:30;17.80;;;12.90;;
75340;SDS011;64091;47.562;18.920;2022-10-31T08:10:55;14.90;;;10.10;;
75340;SDS011;64091;47.562;18.920;2022-10-31T08:13:23;12.70;;;8.00;;
75340;SDS011;64091;47.562;18.920;2022-10-31T08:15:48;14.80;;;9.80;;
75340;SDS011;64091;47.562;18.920;2022-10-31T08:18:16;12.40;;;8.00;;
75340;SDS011;64091;47.562;18.920;2022-10-31T08:20:45;13.20;;;8.40;;
75340;SDS011;64091;47.562;18.920;2022-10-31T08:23:11;12.70;;;8.80;;
75340;SDS011;64091;47.562;18.920;2022-10-31T08:25:37;12.50;;;9.00;;
75340;SDS011;64091;47.562;18.920;2022-10-31T08:28:03;13.30;;;8.80;;
75340;SDS011;64091;47.562;18.920;2022-10-31T08:30:30;12.60;;;8.40;;
75340;SDS011;64091;47.562;18.920;2022-10-31T08:33:04;13.70;;;9.10;;
75340;SDS011;64091;47.562;18.920;2022-10-31T08:35:30;13.20;;;9.10;;
75340;SDS011;64091;47.562;18.920;2022-10-31T08:37:59;14.50;;;9.20;;
75340;SDS011;64091;47.562;18.920;2022-10-31T08:40:26;13.90;;;9.90;;
75340;SDS011;64091;47.562;18.920;2022-10-31T08:43:05;13.20;;;8.40;;
75340;SDS011;64091;47.562;18.920;2022-10-31T08:45:33;12.60;;;8.40;;
75340;SDS011;64091;47.562;18.920;2022-10-31T08:48:03;13.80;;;8.10;;
75340;SDS011;64091;47.562;18.920;2022-10-31T08:50:33;14.50;;;9.50;;
75340;SDS011;64091;47.562;18.920;2022-10-31T08:53:00;14.20;;;9.30;;
75340;SDS011;64091;47.562;18.920;2022-10-31T08:55:32;12.70;;;8.50;;
75340;SDS011;64091;47.562;18.920;2022-10-31T08:58:01;14.40;;;9.50;;
75340;SDS011;64091;47.562;18.920;2022-10-31T09:00:27;12.30;;;8.70;;
75340;SDS011;64091;47.562;18.920;2022-10-31T09:02:56;13.90;;;9.20;;
75340;SDS011;64091;47.562;18.920;2022-10-31T09:05:23;14.90;;;10.00;;
75340;SDS011;64091;47.562;18.920;2022-10-31T09:07:48;12.10;;;8.70;;
75340;SDS011;64091;47.562;18.920;2022-10-31T09:10:14;13.90;;;9.40;;
75340;SDS011;64091;47.562;18.920;2022-10-31T09:12:39;19.60;;;10.80;;
75340;SDS011;64091;47.562;18.920;2022-10-31T09:15:07;13.70;;;9.80;;
75340;SDS011;64091;47.562;18.920;2022-10-31T09:17:33;21.50;;;10.40;;
75340;SDS011;64091;47.562;18.920;2022-10-31T09:19:58;14.90;;;10.00;;
75340;SDS011;64091;47.562;18.920;2022-10-31T09:22:27;22.70;;;9.20;;
75340;SDS011;64091;47.562;18.920;2022-10-31T09:24:52;13.60;;;8.90;;
75340;SDS011;64091;47.562;18.920;2022-10-31T09:27:18;13.90;;;9.20;;
75340;SDS011;64091;47.562;18.920;2022-10-31T09:29:43;13.90;;;9.30;;
75340;SDS011;64091;47.562;18.920;2022-10-31T09:32:09;13.70;;;8.40;;
75340;SDS011;64091;47.562;18.920;2022-10-31T09:34:34;11.90;;;8.20;;
75340;SDS011;64091;47.562;18.920;2022-10-31T09:36:59;14.20;;;9.30;;
75340;SDS011;64091;47.562;18.920;2022-10-31T09:39:35;14.20;;;9.00;;
75340;SDS011;64091;47.562;18.920;2022-10-31T09:42:02;13.50;;;9.10;;
75340;SDS011;64091;47.562;18.920;2022-10-31T09:53:34;14.20;;;9.30;;
75340;SDS011;64091;47.562;18.920;2022-10-31T09:56:20;21.00;;;11.10;;
75340;SDS011;64091;47.562;18.920;2022-10-31T09:58:53;16.70;;;11.30;;
75340;SDS011;64091;47.562;18.920;2022-10-31T10:04:11;19.90;;;12.10;;
75340;SDS011;64091;47.562;18.920;2022-10-31T10:07:10;21.60;;;12.80;;
75340;SDS011;64091;47.562;18.920;2022-10-31T10:09:39;20.40;;;12.60;;
75340;SDS011;64091;47.562;18.920;2022-10-31T10:15:05;26.70;;;13.20;;
75340;SDS011;64091;47.562;18.920;2022-10-31T10:26:35;23.60;;;12.30;;
75340;SDS011;64091;47.562;18.920;2022-10-31T10:29:32;22.40;;;12.30;;
75340;SDS011;64091;47.562;18.920;2022-10-31T10:31:58;22.00;;;12.50;;
75340;SDS011;64091;47.562;18.920;2022-10-31T10:34:29;23.80;;;12.90;;
75340;SDS011;64091;47.562;18.920;2022-10-31T10:37:01;20.70;;;11.60;;
75340;SDS011;64091;47.562;18.920;2022-10-31T10:39:36;22.70;;;12.70;;
75340;SDS011;64091;47.562;18.920;2022-10-31T10:42:07;27.00;;;12.80;;
75340;SDS011;64091;47.562;18.920;2022-10-31T10:44:55;21.80;;;13.20;;
75340;SDS011;64091;47.562;18.920;2022-10-31T10:47:41;23.30;;;12.70;;
75340;SDS011;64091;47.562;18.920;2022-10-31T10:50:19;21.20;;;12.20;;
75340;SDS011;64091;47.562;18.920;2022-10-31T10:58:22;23.10;;;13.30;;
75340;SDS011;64091;47.562;18.920;2022-10-31T11:00:47;27.20;;;13.60;;
75340;SDS011;64091;47.562;18.920;2022-10-31T11:03:15;21.80;;;12.50;;
75340;SDS011;64091;47.562;18.920;2022-10-31T11:05:48;23.30;;;12.70;;
75340;SDS011;64091;47.562;18.920;2022-10-31T11:11:13;28.00;;;14.60;;
75340;SDS011;64091;47.562;18.920;2022-10-31T11:14:05;25.70;;;13.00;;
75340;SDS011;64091;47.562;18.920;2022-10-31T11:16:38;23.20;;;13.60;;
75340;SDS011;64091;47.562;18.920;2022-10-31T11:21:39;24.40;;;13.60;;
75340;SDS011;64091;47.562;18.920;2022-10-31T11:26:33;24.50;;;14.30;;
75340;SDS011;64091;47.562;18.920;2022-10-31T11:29:00;27.40;;;15.50;;
75340;SDS011;64091;47.562;18.920;2022-10-31T11:31:28;25.30;;;14.50;;
75340;SDS011;64091;47.562;18.920;2022-10-31T11:33:58;24.60;;;13.40;;
75340;SDS011;64091;47.562;18.920;2022-10-31T11:36:28;27.90;;;14.10;;
75340;SDS011;64091;47.562;18.920;2022-10-31T11:38:55;25.20;;;13.90;;
75340;SDS011;64091;47.562;18.920;2022-10-31T11:41:28;24.50;;;13.90;;
75340;SDS011;64091;47.562;18.920;2022-10-31T11:43:59;25.90;;;14.00;;
75340;SDS011;64091;47.562;18.920;2022-10-31T11:46:33;27.50;;;15.20;;
75340;SDS011;64091;47.562;18.920;2022-10-31T11:49:02;25.40;;;14.60;;
75340;SDS011;64091;47.562;18.920;2022-10-31T11:51:30;26.00;;;14.20;;
75340;SDS011;64091;47.562;18.920;2022-10-31T11:53:58;22.80;;;13.30;;
75340;SDS011;64091;47.562;18.920;2022-10-31T11:56:27;20.40;;;12.70;;
75340;SDS011;64091;47.562;18.920;2022-10-31T11:59:02;23.60;;;14.20;;
75340;SDS011;64091;47.562;18.920;2022-10-31T12:01:31;25.60;;;14.00;;
75340;SDS011;64091;47.562;18.920;2022-10-31T12:04:07;26.60;;;12.80;;
75340;SDS011;64091;47.562;18.920;2022-10-31T12:06:35;23.70;;;13.80;;
75340;SDS011;64091;47.562;18.920;2022-10-31T12:09:02;24.90;;;13.60;;
75340;SDS011;64091;47.562;18.920;2022-10-31T12:11:51;26.60;;;13.80;;
75340;SDS011;64091;47.562;18.920;2022-10-31T12:20:21;27.90;;;13.90;;
75340;SDS011;64091;47.562;18.920;2022-10-31T12:26:08;23.90;;;12.90;;
75340;SDS011;64091;47.562;18.920;2022-10-31T12:45:34;24.30;;;13.30;;
75340;SDS011;64091;47.562;18.920;2022-10-31T12:59:53;26.50;;;13.40;;
75340;SDS011;64091;47.562;18.920;2022-10-31T13:02:38;24.20;;;13.10;;
75340;SDS011;64091;47.562;18.920;2022-10-31T13:05:17;24.60;;;14.30;;
75340;SDS011;64091;47.562;18.920;2022-10-31T13:08:09;23.90;;;12.90;;
75340;SDS011;64091;47.562;18.920;2022-10-31T13:10:41;22.20;;;13.50;;
75340;SDS011;64091;47.562;18.920;2022-10-31T13:13:10;23.10;;;13.70;;
75340;SDS011;64091;47.562;18.920;2022-10-31T13:16:13;25.90;;;15.00;;
75340;SDS011;64091;47.562;18.920;2022-10-31T13:18:51;25.70;;;14.70;;
75340;SDS011;64091;47.562;18.920;2022-10-31T13:21:20;30.60;;;16.70;;
75340;SDS011;64091;47.562;18.920;2022-10-31T13:23:50;27.30;;;16.00;;
75340;SDS011;64091;47.562;18.920;2022-10-31T13:29:23;30.20;;;17.40;;
75340;SDS011;64091;47.562;18.920;2022-10-31T13:31:54;24.00;;;14.60;;
75340;SDS011;64091;47.562;18.920;2022-10-31T13:34:33;30.40;;;18.40;;
75340;SDS011;64091;47.562;18.920;2022-10-31T13:37:11;40.20;;;29.80;;
75340;SDS011;64091;47.562;18.920;2022-10-31T13:45:14;21.90;;;13.80;;
75340;SDS011;64091;47.562;18.920;2022-10-31T13:47:41;24.00;;;14.10;;
75340;SDS011;64091;47.562;18.920;2022-10-31T13:50:23;23.90;;;14.70;;
75340;SDS011;64091;47.562;18.920;2022-10-31T13:52:51;24.80;;;15.90;;
75340;SDS011;64091;47.562;18.920;2022-10-31T13:58:24;31.80;;;21.20;;
75340;SDS011;64091;47.562;18.920;2022-10-31T14:01:02;27.70;;;18.30;;
75340;SDS011;64091;47.562;18.920;2022-10-31T14:03:30;31.00;;;17.90;;
75340;SDS011;64091;47.562;18.920;2022-10-31T14:05:56;28.20;;;18.20;;
75340;SDS011;64091;47.562;18.920;2022-10-31T14:08:22;29.60;;;19.60;;
75340;SDS011;64091;47.562;18.920;2022-10-31T14:10:50;23.70;;;14.40;;
75340;SDS011;64091;47.562;18.920;2022-10-31T14:18:30;23.20;;;14.50;;
75340;SDS011;64091;47.562;18.920;2022-10-31T14:21:00;28.20;;;16.90;;
75340;SDS011;64091;47.562;18.920;2022-10-31T14:23:35;25.70;;;15.70;;
75340;SDS011;64091;47.562;18.920;2022-10-31T14:28:57;23.40;;;13.80;;
75340;SDS011;64091;47.562;18.920;2022-10-31T14:34:00;26.50;;;16.80;;
75340;SDS011;64091;47.562;18.920;2022-10-31T14:36:40;32.70;;;20.20;;
75340;SDS011;64091;47.562;18.920;2022-10-31T14:39:40;25.30;;;15.80;;
75340;SDS011;64091;47.562;18.920;2022-10-31T14:44:51;26.50;;;15.70;;
75340;SDS011;64091;47.562;18.920;2022-10-31T14:47:24;25.90;;;15.80;;
75340;SDS011;64091;47.562;18.920;2022-10-31T14:52:56;26.90;;;15.70;;
75340;SDS011;64091;47.562;18.920;2022-10-31T14:55:22;46.30;;;23.40;;
75340;SDS011;64091;47.562;18.920;2022-10-31T14:57:49;39.20;;;24.20;;
75340;SDS011;64091;47.562;18.920;2022-10-31T15:00:20;46.80;;;28.50;;
75340;SDS011;64091;47.562;18.920;2022-10-31T15:02:53;40.60;;;27.40;;
75340;SDS011;64091;47.562;18.920;2022-10-31T15:05:26;32.50;;;21.10;;
75340;SDS011;64091;47.562;18.920;2022-10-31T15:07:56;28.20;;;17.20;;
75340;SDS011;64091;47.562;18.920;2022-10-31T15:12:51;25.40;;;16.20;;
75340;SDS011;64091;47.562;18.920;2022-10-31T15:15:20;25.10;;;15.50;;
75340;SDS011;64091;47.562;18.920;2022-10-31T15:18:00;23.80;;;15.10;;
75340;SDS011;64091;47.562;18.920;2022-10-31T15:20:27;23.90;;;15.90;;
75340;SDS011;64091;47.562;18.920;2022-10-31T15:22:54;24.90;;;15.90;;
75340;SDS011;64091;47.562;18.920;2022-10-31T15:25:22;30.60;;;20.60;;
75340;SDS011;64091;47.562;18.920;2022-10-31T15:27:52;39.20;;;25.60;;
75340;SDS011;64091;47.562;18.920;2022-10-31T15:30:24;25.90;;;18.40;;
75340;SDS011;64091;47.562;18.920;2022-10-31T15:32:51;27.70;;;18.20;;
75340;SDS011;64091;47.562;18.920;2022-10-31T15:35:20;38.90;;;26.30;;
75340;SDS011;64091;47.562;18.920;2022-10-31T15:37:48;23.70;;;15.70;;
75340;SDS011;64091;47.562;18.920;2022-10-31T15:40:14;27.60;;;18.50;;
75340;SDS011;64091;47.562;18.920;2022-10-31T15:42:41;24.90;;;15.30;;
75340;SDS011;64091;47.562;18.920;2022-10-31T15:47:38;23.80;;;15.80;;
75340;SDS011;64091;47.562;18.920;2022-10-31T15:50:17;23.10;;;16.30;;
75340;SDS011;64091;47.562;18.920;2022-10-31T15:52:46;25.70;;;17.60;;
75340;SDS011;64091;47.562;18.920;2022-10-31T15:55:18;32.70;;;23.00;;
75340;SDS011;64091;47.562;18.920;2022-10-31T15:57:47;30.30;;;22.20;;
75340;SDS011;64091;47.562;18.920;2022-10-31T16:03:00;26.60;;;15.50;;
75340;SDS011;64091;47.562;18.920;2022-10-31T16:05:51;54.30;;;28.10;;
75340;SDS011;64091;47.562;18.920;2022-10-31T16:08:26;39.70;;;26.40;;
75340;SDS011;64091;47.562;18.920;2022-10-31T16:10:55;30.70;;;18.00;;
75340;SDS011;64091;47.562;18.920;2022-10-31T16:13:27;35.10;;;22.30;;
75340;SDS011;64091;47.562;18.920;2022-10-31T16:16:04;33.90;;;21.80;;
75340;SDS011;64091;47.562;18.920;2022-10-31T16:18:37;23.30;;;16.40;;
75340;SDS011;64091;47.562;18.920;2022-10-31T16:21:03;26.90;;;17.30;;
75340;SDS011;64091;47.562;18.920;2022-10-31T16:23:29;33.10;;;21.40;;
75340;SDS011;64091;47.562;18.920;2022-10-31T16:25:55;24.90;;;16.40;;
75340;SDS011;64091;47.562;18.920;2022-10-31T16:28:21;35.80;;;17.00;;
75340;SDS011;64091;47.562;18.920;2022-10-31T16:30:50;24.40;;;17.10;;
75340;SDS011;64091;47.562;18.920;2022-10-31T16:33:33;29.20;;;16.40;;
75340;SDS011;64091;47.562;18.920;2022-10-31T16:38:53;25.60;;;16.00;;
75340;SDS011;64091;47.562;18.920;2022-10-31T16:41:21;23.90;;;15.20;;
75340;SDS011;64091;47.562;18.920;2022-10-31T16:43:48;29.70;;;17.60;;
75340;SDS011;64091;47.562;18.920;2022-10-31T16:46:23;21.60;;;14.60;;
75340;SDS011;64091;47.562;18.920;2022-10-31T16:48:51;23.70;;;16.10;;
75340;SDS011;64091;47.562;18.920;2022-10-31T16:51:17;29.90;;;20.50;;
75340;SDS011;64091;47.562;18.920;2022-10-31T16:53:42;24.20;;;16.40;;
75340;SDS011;64091;47.562;18.920;2022-10-31T16:56:18;24.70;;;15.60;;
75340;SDS011;64091;47.562;18.920;2022-10-31T16:58:51;28.70;;;15.40;;
75340;SDS011;64091;47.562;18.920;2022-10-31T17:01:16;21.20;;;14.70;;
75340;SDS011;64091;47.562;18.920;2022-10-31T17:03:42;30.30;;;20.50;;
75340;SDS011;64091;47.562;18.920;2022-10-31T17:06:10;42.00;;;21.90;;